Kahloke — CZ3845 — position and weather

sailwx.info

Track history (hours):
 
Tides and Currents Weather Stations Pressure Air Temp Water Temp Dewpoint Dewpoint Depression Visibility Wind Speed Wind Dir Waves Ship Positions

Kahloke

Last reported at 2018-Jun-22 19:59 UTC. Time now 2018-Jun-22 20:26 UTC.
Position N 49°31' W 124°42'.

Length 54 m; draft 2 m.

Type: Passenger vessel. MMSI: 316001236.

Date/timePositionNaut miles runAvg speedWind from/ knotsBaromVisibWave heightAir tempDewpointWater temp
2018-Jun-22 19:59N 49°31' W 124°42'2240.5
2018-Jun-22 19:27N 49°20' W 124°13'22479.8
2018-Jun-22 19:24N 49°30' W 124°43'1843.5
2018-Jun-22 18:59N 49°22' W 124°18'4 7.7
2018-Jun-22 18:29N 49°23' W 124°23'1484.1
2018-Jun-22 18:19N 49°30' W 124°42'1026.6
2018-Jun-22 17:57N 49°25' W 124°30'949.1
2018-Jun-22 17:45N 49°30' W 124°43'622.0
2018-Jun-22 17:30N 49°27' W 124°35'6126.1
2018-Jun-22 17:28N 49°30' W 124°42'2 3.9
2018-Jun-22 16:58N 49°28' W 124°42'2348.3
2018-Jun-22 16:57N 49°31' W 124°42'4 7.7
2018-Jun-22 16:28N 49°31' W 124°48'413.5
2018-Jun-22 16:12N 49°30' W 124°43'1 5.1
2018-Jun-22 16:00N 49°31' W 124°42'0 0.0
2018-Jun-22 15:29N 49°31' W 124°42'0 0.0
2018-Jun-22 14:59N 49°31' W 124°42'0 0.0
2018-Jun-22 14:23N 49°31' W 124°42'0 0.0
2018-Jun-22 13:59N 49°31' W 124°42'0 0.0
2018-Jun-22 13:29N 49°31' W 124°42'0 0.0
2018-Jun-22 12:59N 49°31' W 124°42'0 0.0
2018-Jun-22 12:29N 49°31' W 124°42'0 0.0
2018-Jun-22 11:53N 49°31' W 124°42'0 0.0
2018-Jun-22 11:23N 49°31' W 124°42'0 0.0
2018-Jun-22 10:59N 49°31' W 124°42'523.4
2018-Jun-22 10:46N 49°32' W 124°49'516.8
2018-Jun-22 10:29N 49°31' W 124°42'523.3
2018-Jun-22 10:16N 49°32' W 124°49'0 0.0
2018-Jun-22 09:58N 49°32' W 124°49'553.9
2018-Jun-22 09:53N 49°31' W 124°42'511.9
2018-Jun-22 09:28N 49°32' W 124°49'525.7
2018-Jun-22 09:17N 49°31' W 124°42'515.8
2018-Jun-22 08:58N 49°32' W 124°49'0 0.0
2018-Jun-22 08:28N 49°32' W 124°49'0 0.0
2018-Jun-22 07:58N 49°32' W 124°49'0 0.0
2018-Jun-22 07:28N 49°32' W 124°49'0 0.0
2018-Jun-22 06:52N 49°32' W 124°49'0 0.0
2018-Jun-22 06:28N 49°32' W 124°49'0 0.0
2018-Jun-22 05:40N 49°32' W 124°49'0 0.0
2018-Jun-22 05:28N 49°32' W 124°49'5 1.7
2018-Jun-22 02:35N 49°31' W 124°42'5222.9
2018-Jun-22 02:34N 49°32' W 124°49'578.3
2018-Jun-22 02:30N 49°30' W 124°42'0 0.2
2018-Jun-22 01:57N 49°31' W 124°42'1 1.3
2018-Jun-22 01:18N 49°30' W 124°43'1 2.2
2018-Jun-22 00:59N 49°30' W 124°42'0 0.2
2018-Jun-22 00:26N 49°30' W 124°42'1 0.9
2018-Jun-21 23:45N 49°30' W 124°42'0 0.4
2018-Jun-21 23:19N 49°30' W 124°43'533.7
2018-Jun-21 23:10N 49°32' W 124°49'0 0.0
2018-Jun-21 22:58N 49°32' W 124°49'534.3
2018-Jun-21 22:49N 49°30' W 124°43'514.5
2018-Jun-21 22:28N 49°32' W 124°49'533.5
2018-Jun-21 22:19N 49°30' W 124°43'514.7
2018-Jun-21 21:58N 49°32' W 124°49'5179.7
2018-Jun-21 21:56N 49°31' W 124°42'510.3
2018-Jun-21 21:28N 49°32' W 124°49'571.0
2018-Jun-21 21:24N 49°30' W 124°43'511.9
2018-Jun-21 20:58N 49°32' W 124°49'584.4
2018-Jun-21 20:55N 49°31' W 124°42'1 2.2
2018-Jun-21 20:28N 49°30' W 124°43'554.4
2018-Jun-21 20:22N 49°32' W 124°49'0 0.0
2018-Jun-21 19:52N 49°32' W 124°49'5296.9
2018-Jun-21 19:51N 49°30' W 124°42'510.6
2018-Jun-21 19:22N 49°32' W 124°49'5162.6
2018-Jun-21 19:20N 49°30' W 124°43'513.8
2018-Jun-21 18:58N 49°32' W 124°49'522.2
2018-Jun-21 18:44N 49°30' W 124°43'0 0.0
2018-Jun-21 18:30N 49°30' W 124°43'559.3
2018-Jun-21 18:25N 49°32' W 124°49'0 0.0
2018-Jun-21 17:52N 49°32' W 124°49'0 0.0
2018-Jun-21 17:28N 49°32' W 124°49'5612.6
2018-Jun-21 17:28N 49°30' W 124°43'510.4
2018-Jun-21 16:58N 49°32' W 124°49'529.6
2018-Jun-21 16:48N 49°30' W 124°42'1 1.1
2018-Jun-21 16:19N 49°30' W 124°43'0 0.7
2018-Jun-21 15:37N 49°30' W 124°42'0 4.0
2018-Jun-21 15:30N 49°30' W 124°43'0 0.0
2018-Jun-21 14:45N 49°30' W 124°43'1 2.2
2018-Jun-21 14:17N 49°31' W 124°42'0 0.0
2018-Jun-21 12:38N 49°31' W 124°42'0 0.0
2018-Jun-21 12:20N 49°31' W 124°42'517.9
2018-Jun-21 12:04N 49°32' W 124°49'0 0.0
2018-Jun-21 11:52N 49°32' W 124°49'0 0.0
2018-Jun-21 11:28N 49°32' W 124°49'0 0.0
2018-Jun-21 10:46N 49°32' W 124°49'0 0.0
2018-Jun-21 10:10N 49°32' W 124°49'0 0.0
2018-Jun-21 09:52N 49°32' W 124°49'0 0.0
2018-Jun-21 09:16N 49°32' W 124°49'0 0.0
2018-Jun-21 08:46N 49°32' W 124°49'0 0.0
2018-Jun-21 08:28N 49°32' W 124°49'0 0.0
2018-Jun-21 07:46N 49°32' W 124°49'0 0.0
2018-Jun-21 07:16N 49°32' W 124°49'0 0.0
2018-Jun-21 06:52N 49°32' W 124°49'0 0.0
2018-Jun-21 06:04N 49°32' W 124°49'5 1.2
2018-Jun-21 01:44N 49°30' W 124°42'1 1.8
2018-Jun-21 01:28N 49°30' W 124°43'0 0.3
2018-Jun-21 00:43N 49°30' W 124°43'0 1.0
2018-Jun-21 00:30N 49°30' W 124°43'1 1.2
2018-Jun-20 23:51N 49°30' W 124°42'1 2.1
2018-Jun-20 23:28N 49°30' W 124°43'1 0.9
2018-Jun-20 22:50N 49°30' W 124°42'1 1.6
2018-Jun-20 22:28N 49°30' W 124°43'0 0.3
2018-Jun-20 21:52N 49°30' W 124°43'0 0.4
2018-Jun-20 21:25N 49°30' W 124°43'0 0.2
2018-Jun-20 19:55N 49°30' W 124°42'0 0.8
2018-Jun-20 19:27N 49°30' W 124°43'1 1.0
2018-Jun-20 18:53N 49°30' W 124°42'0 0.1
2018-Jun-20 18:12N 49°30' W 124°42'1 2.6
2018-Jun-20 18:00N 49°30' W 124°43'0 0.6
2018-Jun-20 17:25N 49°30' W 124°42'1 1.1
2018-Jun-20 16:55N 49°31' W 124°42'1 2.0
2018-Jun-20 16:27N 49°30' W 124°43'1 1.9
2018-Jun-20 15:54N 49°31' W 124°42'1 2.0
2018-Jun-20 15:23N 49°30' W 124°43'1 1.8
2018-Jun-20 14:58N 49°30' W 124°42'0 0.1
2018-Jun-20 12:37N 49°31' W 124°42'0 0.0
2018-Jun-20 12:25N 49°31' W 124°42'0 0.0
2018-Jun-20 11:31N 49°31' W 124°42'0 0.0
2018-Jun-20 11:13N 49°31' W 124°42'0 0.0
2018-Jun-20 10:49N 49°31' W 124°42'5 1.8
2018-Jun-20 08:04N 49°32' W 124°49'0 0.0
2018-Jun-20 07:52N 49°32' W 124°49'0 0.0
2018-Jun-20 06:28N 49°32' W 124°49'0 0.0
2018-Jun-20 05:34N 49°32' W 124°49'0 0.0
2018-Jun-20 05:28N 49°32' W 124°49'0 0.0
2018-Jun-20 04:58N 49°32' W 124°49'0 0.0
2018-Jun-20 04:10N 49°32' W 124°49'0 0.0
2018-Jun-20 03:52N 49°32' W 124°49'0 0.0
2018-Jun-20 03:16N 49°32' W 124°49'0 0.0
2018-Jun-20 02:46N 49°32' W 124°49'0 0.0
2018-Jun-20 02:28N 49°32' W 124°49'518.2
2018-Jun-20 02:11N 49°30' W 124°43'522.5
2018-Jun-20 01:58N 49°32' W 124°49'5391.9
2018-Jun-20 01:57N 49°30' W 124°43'0 0.5
2018-Jun-20 01:30N 49°30' W 124°43'5138.2
2018-Jun-20 01:28N 49°32' W 124°49'0 0.0
2018-Jun-20 00:58N 49°32' W 124°49'522.6
2018-Jun-20 00:45N 49°30' W 124°42'0 1.9
2018-Jun-20 00:30N 49°30' W 124°43'0 0.0
2018-Jun-19 23:41N 49°30' W 124°43'0 0.1
2018-Jun-19 23:29N 49°30' W 124°43'0 0.0
2018-Jun-19 22:43N 49°30' W 124°43'0 0.0
2018-Jun-19 22:28N 49°30' W 124°43'1 1.7
2018-Jun-19 21:52N 49°31' W 124°42'1 2.8
2018-Jun-19 21:30N 49°30' W 124°43'0 0.5
2018-Jun-19 20:46N 49°30' W 124°42'0 1.3
2018-Jun-19 20:30N 49°30' W 124°43'0 0.8
2018-Jun-19 19:57N 49°30' W 124°42'0 0.2
2018-Jun-19 19:26N 49°30' W 124°42'1 1.1
2018-Jun-19 18:54N 49°31' W 124°42'1 2.3
2018-Jun-19 18:30N 49°30' W 124°43'0 0.3
2018-Jun-19 17:50N 49°30' W 124°42'0 0.5
2018-Jun-19 17:30N 49°30' W 124°43'5193.5
2018-Jun-19 17:28N 49°32' W 124°49'0 0.0
2018-Jun-19 16:58N 49°32' W 124°49'0 0.0
2018-Jun-19 16:28N 49°32' W 124°49'520.7
2018-Jun-19 16:13N 49°30' W 124°43'520.1
2018-Jun-19 15:58N 49°32' W 124°49'515.9
2018-Jun-19 15:39N 49°30' W 124°42'1 3.8
2018-Jun-19 15:26N 49°30' W 124°43'523.2
2018-Jun-19 15:13N 49°32' W 124°49'0 0.0
2018-Jun-19 14:58N 49°32' W 124°49'518.2
2018-Jun-19 14:41N 49°30' W 124°43'1 0.4
2018-Jun-19 12:09N 49°31' W 124°42'0 0.0
2018-Jun-19 09:44N 49°31' W 124°42'0 0.0
2018-Jun-19 09:30N 49°31' W 124°42'0 0.0
2018-Jun-19 07:26N 49°31' W 124°42'0 0.0
2018-Jun-19 05:13N 49°31' W 124°42'1 3.7
2018-Jun-19 04:57N 49°30' W 124°43'1 0.2
2018-Jun-19 01:43N 49°30' W 124°42'1 2.1
2018-Jun-19 01:20N 49°30' W 124°43'1 1.0
2018-Jun-19 00:45N 49°30' W 124°42'0 0.4
2018-Jun-19 00:05N 49°30' W 124°42'0 0.2
2018-Jun-18 23:43N 49°30' W 124°42'0 1.6
2018-Jun-18 23:29N 49°30' W 124°43'1 1.7
2018-Jun-18 22:53N 49°31' W 124°42'1 1.1
2018-Jun-18 22:06N 49°30' W 124°43'1 2.3
2018-Jun-18 21:49N 49°30' W 124°42'1 2.6
2018-Jun-18 21:29N 49°30' W 124°43'0 0.2
2018-Jun-18 20:47N 49°30' W 124°42'0 0.5
2018-Jun-18 20:29N 49°30' W 124°43'1 2.0
2018-Jun-18 19:59N 49°31' W 124°42'1 1.7
2018-Jun-18 19:26N 49°30' W 124°43'0 0.1
2018-Jun-18 18:46N 49°30' W 124°42'554.4
2018-Jun-18 18:40N 49°32' W 124°49'0 0.0
2018-Jun-18 18:28N 49°32' W 124°49'5115.6
2018-Jun-18 18:25N 49°30' W 124°43'511.2
2018-Jun-18 17:58N 49°32' W 124°49'549.4
2018-Jun-18 17:52N 49°31' W 124°42'1 1.8
2018-Jun-18 17:22N 49°30' W 124°43'51148.6
2018-Jun-18 17:22N 49°32' W 124°49'0 0.0
2018-Jun-18 16:58N 49°32' W 124°49'523.8
2018-Jun-18 16:45N 49°30' W 124°42'517.5
2018-Jun-18 16:28N 49°32' W 124°49'5107.5
2018-Jun-18 16:25N 49°30' W 124°43'511.3
2018-Jun-18 15:58N 49°32' W 124°49'0 0.0
2018-Jun-18 15:16N 49°32' W 124°49'517.1
2018-Jun-18 14:59N 49°30' W 124°42'5 0.5
2018-Jun-18 04:28N 49°32' W 124°49'5 2.1
2018-Jun-18 02:06N 49°31' W 124°42'1 2.3
2018-Jun-18 01:45N 49°30' W 124°42'0 0.5
2018-Jun-18 01:26N 49°30' W 124°42'0 0.9
2018-Jun-18 01:00N 49°30' W 124°43'1 1.9
2018-Jun-18 00:29N 49°31' W 124°42'0 0.0
2018-Jun-17 23:46N 49°31' W 124°42'1 3.4
2018-Jun-17 23:29N 49°30' W 124°43'1 1.5
2018-Jun-17 22:49N 49°31' W 124°42'1 3.3
2018-Jun-17 22:30N 49°30' W 124°43'1 1.0
2018-Jun-17 21:52N 49°30' W 124°42'0 0.2
2018-Jun-17 21:30N 49°30' W 124°42'1 1.2
2018-Jun-17 20:56N 49°30' W 124°43'1 1.1
2018-Jun-17 20:18N 49°30' W 124°42'1 2.4
2018-Jun-17 20:00N 49°30' W 124°43'1 0.9
2018-Jun-17 19:26N 49°30' W 124°42'1 1.0
2018-Jun-17 18:53N 49°31' W 124°42'1 2.5
2018-Jun-17 18:28N 49°30' W 124°43'1 2.1
2018-Jun-17 18:00N 49°31' W 124°42'5161.6
2018-Jun-17 17:58N 49°32' W 124°49'511.1
2018-Jun-17 17:30N 49°30' W 124°43'5124.2
2018-Jun-17 17:28N 49°32' W 124°49'5 9.6
2018-Jun-17 16:57N 49°30' W 124°42'513.1
2018-Jun-17 16:34N 49°32' W 124°49'517.3
2018-Jun-17 16:16N 49°30' W 124°42'0 0.1
2018-Jun-17 08:07N 49°31' W 124°42'5 1.3
2018-Jun-17 04:22N 49°32' W 124°49'0 0.0
2018-Jun-17 03:58N 49°32' W 124°49'5 2.2
2018-Jun-17 01:37N 49°30' W 124°43'0 0.2
2018-Jun-17 01:29N 49°30' W 124°43'1 0.8
2018-Jun-17 00:46N 49°30' W 124°42'1 1.8
2018-Jun-17 00:27N 49°30' W 124°43'1 1.0
2018-Jun-16 23:48N 49°30' W 124°42'1 2.3
2018-Jun-16 23:30N 49°30' W 124°43'1 1.5
2018-Jun-16 22:52N 49°31' W 124°42'1 1.8
2018-Jun-16 22:19N 49°30' W 124°43'1 1.1
2018-Jun-16 21:47N 49°30' W 124°42'1 2.0
2018-Jun-16 21:29N 49°30' W 124°43'1 1.6
2018-Jun-16 20:56N 49°31' W 124°42'1 2.0
2018-Jun-16 20:30N 49°30' W 124°43'1 1.7
2018-Jun-16 20:00N 49°30' W 124°42'1 1.7
2018-Jun-16 19:30N 49°30' W 124°43'1 0.9
2018-Jun-16 18:47N 49°30' W 124°42'1 2.2
2018-Jun-16 18:29N 49°30' W 124°43'1 2.1
2018-Jun-16 17:59N 49°31' W 124°42'1 2.1
2018-Jun-16 17:30N 49°30' W 124°43'1 1.9
2018-Jun-16 16:58N 49°31' W 124°42'1 2.2
2018-Jun-16 16:30N 49°30' W 124°43'1 1.6
2018-Jun-16 15:59N 49°30' W 124°42'0 0.4
2018-Jun-16 15:29N 49°31' W 124°42'0 0.2
2018-Jun-16 15:00N 49°31' W 124°42'0 0.1
2018-Jun-16 14:02N 49°31' W 124°42'0 0.0
2018-Jun-16 13:56N 49°31' W 124°42'0 0.0
2018-Jun-16 13:26N 49°31' W 124°42'0 0.0
2018-Jun-16 12:20N 49°31' W 124°42'5 0.8
2018-Jun-16 06:04N 49°32' W 124°49'536.8
2018-Jun-16 05:56N 49°31' W 124°42'572.5
2018-Jun-16 05:52N 49°32' W 124°49'513.3
2018-Jun-16 05:29N 49°30' W 124°43'1 1.9
2018-Jun-16 04:56N 49°31' W 124°42'0 0.6
2018-Jun-16 04:31N 49°30' W 124°42'0 0.4
2018-Jun-16 03:53N 49°31' W 124°42'0 0.0
2018-Jun-16 03:30N 49°31' W 124°42'1 1.8
2018-Jun-16 02:58N 49°30' W 124°43'0 0.1
2018-Jun-16 02:28N 49°30' W 124°43'1 1.0
2018-Jun-16 01:51N 49°30' W 124°42'0 1.2
2018-Jun-16 01:29N 49°30' W 124°43'0 0.4
2018-Jun-16 00:58N 49°30' W 124°43'1 1.5
2018-Jun-16 00:26N 49°30' W 124°42'0 0.1
2018-Jun-16 00:00N 49°30' W 124°42'1 1.5
2018-Jun-15 23:30N 49°30' W 124°43'1 1.7
2018-Jun-15 23:00N 49°30' W 124°42'1 1.7
2018-Jun-15 22:30N 49°30' W 124°43'0 0.5
2018-Jun-15 21:59N 49°30' W 124°42'1 1.5
2018-Jun-15 21:27N 49°31' W 124°42'1 2.1
2018-Jun-15 21:00N 49°30' W 124°43'0 0.2
2018-Jun-15 20:30N 49°30' W 124°43'0 0.2
2018-Jun-15 19:51N 49°30' W 124°42'0 0.4
2018-Jun-15 19:30N 49°30' W 124°43'1 1.4
2018-Jun-15 18:56N 49°30' W 124°42'1 1.1
2018-Jun-15 18:16N 49°30' W 124°43'0 0.3
2018-Jun-15 17:43N 49°30' W 124°42'0 0.2
2018-Jun-15 17:14N 49°30' W 124°43'0 0.1
2018-Jun-15 16:08N 49°30' W 124°43'1 2.2
2018-Jun-15 15:42N 49°31' W 124°42'1 3.8
2018-Jun-15 15:26N 49°30' W 124°43'530.7
2018-Jun-15 15:16N 49°32' W 124°49'518.6
2018-Jun-15 15:00N 49°31' W 124°42'536.1
2018-Jun-15 14:52N 49°32' W 124°49'0 0.0
2018-Jun-15 14:28N 49°32' W 124°49'560.5
2018-Jun-15 14:23N 49°31' W 124°42'511.7
2018-Jun-15 13:58N 49°32' W 124°49'0 0.0
2018-Jun-15 13:28N 49°32' W 124°49'0 0.0
2018-Jun-15 12:58N 49°32' W 124°49'0 0.0
2018-Jun-15 12:28N 49°32' W 124°49'0 0.0
2018-Jun-15 11:58N 49°32' W 124°49'0 0.0
2018-Jun-15 11:28N 49°32' W 124°49'0 0.0
2018-Jun-15 10:40N 49°32' W 124°49'0 0.0
2018-Jun-15 10:28N 49°32' W 124°49'0 0.0
2018-Jun-15 09:58N 49°32' W 124°49'0 0.0
2018-Jun-15 09:16N 49°32' W 124°49'0 0.0
2018-Jun-15 05:28N 49°32' W 124°49'0 0.0
2018-Jun-15 04:52N 49°32' W 124°49'0 0.0
2018-Jun-15 04:22N 49°32' W 124°49'0 0.0
2018-Jun-15 03:58N 49°32' W 124°49'0 0.0
2018-Jun-15 02:28N 49°32' W 124°49'5 7.4
2018-Jun-15 01:49N 49°31' W 124°42'1 3.0
2018-Jun-15 01:29N 49°30' W 124°43'516.5
2018-Jun-15 01:10N 49°32' W 124°49'0 0.0
2018-Jun-15 00:58N 49°32' W 124°49'0 0.0
2018-Jun-15 00:28N 49°32' W 124°49'514.4
2018-Jun-15 00:08N 49°30' W 124°42'0 1.5
2018-Jun-15 00:01N 49°31' W 124°42'5118.2
2018-Jun-14 23:58N 49°32' W 124°49'0 0.0
2018-Jun-14 23:28N 49°32' W 124°49'529.7
2018-Jun-14 23:18N 49°30' W 124°43'1 2.3
2018-Jun-14 22:58N 49°31' W 124°42'51601.1
2018-Jun-14 22:58N 49°32' W 124°49'0 0.0
2018-Jun-14 22:28N 49°32' W 124°49'568.6
2018-Jun-14 22:24N 49°30' W 124°43'1 1.6
2018-Jun-14 21:49N 49°31' W 124°42'1 2.1
2018-Jun-14 21:23N 49°30' W 124°43'0 0.1
2018-Jun-14 20:47N 49°30' W 124°43'515.9
2018-Jun-14 20:28N 49°32' W 124°49'559.5
2018-Jun-14 20:23N 49°30' W 124°43'512.3
2018-Jun-14 19:58N 49°32' W 124°49'5 6.5
2018-Jun-14 19:12N 49°30' W 124°43'5 6.8
2018-Jun-14 18:28N 49°32' W 124°49'513.5
2018-Jun-14 18:05N 49°30' W 124°42'0 0.9
2018-Jun-14 17:53N 49°30' W 124°43'0 0.8
2018-Jun-14 17:30N 49°30' W 124°43'0 0.0
2018-Jun-14 16:11N 49°30' W 124°43'1 5.9
2018-Jun-14 16:01N 49°31' W 124°42'1 2.0
2018-Jun-14 15:30N 49°30' W 124°43'0 0.0
2018-Jun-14 14:55N 49°30' W 124°43'1 2.3
2018-Jun-14 14:29N 49°31' W 124°42'515.6
2018-Jun-14 14:10N 49°32' W 124°49'0 0.0
2018-Jun-14 13:58N 49°32' W 124°49'530.1
2018-Jun-14 13:48N 49°31' W 124°42'514.5
2018-Jun-14 13:28N 49°32' W 124°49'0 0.0
2018-Jun-14 12:58N 49°32' W 124°49'0 0.0
2018-Jun-14 12:28N 49°32' W 124°49'534.7
2018-Jun-14 12:20N 49°31' W 124°42'0 0.0
2018-Jun-14 12:00N 49°31' W 124°42'5155.9
2018-Jun-14 11:58N 49°32' W 124°49'510.0
2018-Jun-14 11:29N 49°31' W 124°42'544.9
2018-Jun-14 11:22N 49°32' W 124°49'512.9
2018-Jun-14 10:59N 49°31' W 124°42'5228.7
2018-Jun-14 10:58N 49°32' W 124°49'510.5
2018-Jun-14 10:30N 49°31' W 124°42'5153.2
2018-Jun-14 10:28N 49°32' W 124°49'510.0
2018-Jun-14 09:59N 49°31' W 124°42'523.4
2018-Jun-14 09:46N 49°32' W 124°49'518.2
2018-Jun-14 09:30N 49°31' W 124°42'537.1
2018-Jun-14 09:22N 49°32' W 124°49'513.5
2018-Jun-14 09:00N 49°31' W 124°42'5130.5
2018-Jun-14 08:58N 49°32' W 124°49'510.1
2018-Jun-14 08:29N 49°31' W 124°42'0 0.0
2018-Jun-14 08:00N 49°31' W 124°42'511.2
2018-Jun-14 07:34N 49°32' W 124°49'571.9
2018-Jun-14 07:30N 49°31' W 124°42'5154.5
2018-Jun-14 07:28N 49°32' W 124°49'510.2
2018-Jun-14 06:59N 49°31' W 124°42'540.5
2018-Jun-14 06:52N 49°32' W 124°49'513.3
2018-Jun-14 06:30N 49°31' W 124°42'514.8
2018-Jun-14 06:10N 49°32' W 124°49'0 0.0
2018-Jun-14 05:58N 49°32' W 124°49'5733.9
2018-Jun-14 05:58N 49°31' W 124°42'5 9.9
2018-Jun-14 05:28N 49°32' W 124°49'571.9
2018-Jun-14 05:24N 49°31' W 124°42'0 0.0
2018-Jun-14 05:00N 49°31' W 124°42'5157.3
2018-Jun-14 04:58N 49°32' W 124°49'0 0.0
2018-Jun-14 04:28N 49°32' W 124°49'577.9
2018-Jun-14 04:24N 49°31' W 124°42'0 0.0
2018-Jun-14 03:58N 49°31' W 124°42'552.7
2018-Jun-14 03:52N 49°32' W 124°49'0 0.0
2018-Jun-14 03:28N 49°32' W 124°49'5652.3
2018-Jun-14 03:28N 49°31' W 124°42'0 0.0
2018-Jun-14 02:58N 49°31' W 124°42'51100.8
2018-Jun-14 02:58N 49°32' W 124°49'0 0.0
2018-Jun-14 02:28N 49°32' W 124°49'531.2
2018-Jun-14 02:19N 49°31' W 124°42'0 0.0
2018-Jun-14 01:56N 49°31' W 124°42'569.3
2018-Jun-14 01:52N 49°32' W 124°49'514.1
2018-Jun-14 01:30N 49°30' W 124°43'5137.2
2018-Jun-14 01:28N 49°32' W 124°49'0 0.0
2018-Jun-14 00:58N 49°32' W 124°49'5120.6
2018-Jun-14 00:56N 49°31' W 124°42'1 2.3
2018-Jun-14 00:29N 49°30' W 124°43'5574.3
2018-Jun-14 00:28N 49°32' W 124°49'510.2
2018-Jun-13 23:59N 49°31' W 124°42'540.7
2018-Jun-13 23:52N 49°32' W 124°49'0 0.0
2018-Jun-13 23:28N 49°32' W 124°49'599.3
2018-Jun-13 23:25N 49°30' W 124°43'1 2.4
2018-Jun-13 23:00N 49°31' W 124°42'1 2.1
2018-Jun-13 22:30N 49°30' W 124°43'515.1
2018-Jun-13 22:10N 49°32' W 124°49'519.9
2018-Jun-13 21:55N 49°31' W 124°42'1 2.3
2018-Jun-13 21:29N 49°30' W 124°43'1 2.0
2018-Jun-13 21:00N 49°31' W 124°42'1 1.9
2018-Jun-13 20:30N 49°30' W 124°43'1 1.2
2018-Jun-13 20:00N 49°30' W 124°43'1 1.2
2018-Jun-13 19:30N 49°30' W 124°43'1 1.5
2018-Jun-13 18:58N 49°30' W 124°42'1 1.4
2018-Jun-13 18:25N 49°30' W 124°43'1 2.5
2018-Jun-13 18:00N 49°31' W 124°42'1 2.0
2018-Jun-13 17:30N 49°30' W 124°43'1 1.7
2018-Jun-13 16:55N 49°31' W 124°42'1 2.4
2018-Jun-13 16:30N 49°30' W 124°43'1 2.1
2018-Jun-13 16:00N 49°31' W 124°42'511.2
2018-Jun-13 15:34N 49°32' W 124°49'518.0
2018-Jun-13 15:17N 49°30' W 124°42'544.3
2018-Jun-13 15:10N 49°32' W 124°49'524.7
2018-Jun-13 14:58N 49°31' W 124°42'53525.3
2018-Jun-13 14:58N 49°32' W 124°49'510.0
2018-Jun-13 14:29N 49°31' W 124°42'5382.9
2018-Jun-13 14:28N 49°32' W 124°49'0 0.0
2018-Jun-13 13:46N 49°32' W 124°49'555.9
2018-Jun-13 13:41N 49°31' W 124°42'0 0.0
2018-Jun-13 13:29N 49°31' W 124°42'543.2
2018-Jun-13 13:22N 49°32' W 124°49'512.6
2018-Jun-13 12:59N 49°31' W 124°42'5382.9
2018-Jun-13 12:58N 49°32' W 124°49'510.0
2018-Jun-13 12:29N 49°31' W 124°42'5391.4
2018-Jun-13 12:28N 49°32' W 124°49'5 7.1
2018-Jun-13 11:47N 49°31' W 124°42'5374.7
2018-Jun-13 11:46N 49°32' W 124°49'0 0.0
2018-Jun-13 11:28N 49°32' W 124°49'0 0.0
2018-Jun-13 10:58N 49°32' W 124°49'512.6
2018-Jun-13 10:35N 49°31' W 124°42'0 0.0
2018-Jun-13 10:29N 49°31' W 124°42'5400.3
2018-Jun-13 10:28N 49°32' W 124°49'510.0
2018-Jun-13 09:59N 49°31' W 124°42'523.0
2018-Jun-13 09:46N 49°32' W 124°49'517.0
2018-Jun-13 09:29N 49°31' W 124°42'5382.9
2018-Jun-13 09:28N 49°32' W 124°49'0 0.0
2018-Jun-13 08:58N 49°32' W 124°49'0 0.0
2018-Jun-13 08:28N 49°32' W 124°49'0 0.0
2018-Jun-13 07:58N 49°32' W 124°49'0 0.0
2018-Jun-13 07:19N 49°32' W 124°49'5129.5
2018-Jun-13 07:17N 49°31' W 124°42'515.6
2018-Jun-13 06:58N 49°32' W 124°49'526.1
2018-Jun-13 06:47N 49°31' W 124°42'0 0.0
2018-Jun-13 06:23N 49°31' W 124°42'5391.4
2018-Jun-13 06:22N 49°32' W 124°49'0 0.0
2018-Jun-13 05:58N 49°32' W 124°49'0 0.0
2018-Jun-13 05:28N 49°32' W 124°49'0 0.0
2018-Jun-13 04:46N 49°32' W 124°49'0 0.0
2018-Jun-13 04:28N 49°32' W 124°49'0 0.0
2018-Jun-13 03:58N 49°32' W 124°49'0 0.0
2018-Jun-13 03:28N 49°32' W 124°49'0 0.0
2018-Jun-13 02:58N 49°32' W 124°49'0 0.0
2018-Jun-13 02:28N 49°32' W 124°49'0 0.0
2018-Jun-13 01:58N 49°32' W 124°49'582.3
2018-Jun-13 01:54N 49°31' W 124°42'511.1
2018-Jun-13 01:28N 49°32' W 124°49'526.9
2018-Jun-13 01:17N 49°30' W 124°43'516.5
2018-Jun-13 00:58N 49°32' W 124°49'0 0.0
2018-Jun-13 00:28N 49°32' W 124°49'515.9
2018-Jun-13 00:09N 49°30' W 124°43'1 5.0
2018-Jun-12 23:58N 49°31' W 124°42'5587.1
2018-Jun-12 23:58N 49°32' W 124°49'0 0.0
2018-Jun-12 23:22N 49°32' W 124°49'540.6
2018-Jun-12 23:14N 49°30' W 124°43'1 4.2
2018-Jun-12 23:00N 49°31' W 124°42'5139.8
2018-Jun-12 22:58N 49°32' W 124°49'5 6.0
2018-Jun-12 22:07N 49°30' W 124°43'0 0.2
2018-Jun-12 21:37N 49°30' W 124°43'0 0.9
2018-Jun-12 21:10N 49°30' W 124°43'1 2.6
2018-Jun-12 20:56N 49°31' W 124°42'1 2.3
2018-Jun-12 20:29N 49°30' W 124°43'  
Track history (hours):
 
Tides and Currents Weather Stations Pressure Air Temp Water Temp Dewpoint Dewpoint Depression Visibility Wind Speed Wind Dir Waves Ship Positions

Kahloke

Last reported at 2018-Jun-22 19:59 UTC. Time now 2018-Jun-22 20:26 UTC.
Position N 49°31' W 124°42'.

Length 54 m; draft 2 m.

Type: Passenger vessel. MMSI: 316001236.

Date/timePositionNaut miles runAvg speedWind from/ knotsBaromVisibWave heightAir tempDewpointWater temp
2018-Jun-22 19:59N 49°31' W 124°42'2240.5
2018-Jun-22 19:27N 49°20' W 124°13'22479.8
2018-Jun-22 19:24N 49°30' W 124°43'1843.5
2018-Jun-22 18:59N 49°22' W 124°18'4 7.7
2018-Jun-22 18:29N 49°23' W 124°23'1484.1
2018-Jun-22 18:19N 49°30' W 124°42'1026.6
2018-Jun-22 17:57N 49°25' W 124°30'949.1
2018-Jun-22 17:45N 49°30' W 124°43'622.0
2018-Jun-22 17:30N 49°27' W 124°35'6126.1
2018-Jun-22 17:28N 49°30' W 124°42'2 3.9
2018-Jun-22 16:58N 49°28' W 124°42'2348.3
2018-Jun-22 16:57N 49°31' W 124°42'4 7.7
2018-Jun-22 16:28N 49°31' W 124°48'413.5
2018-Jun-22 16:12N 49°30' W 124°43'1 5.1
2018-Jun-22 16:00N 49°31' W 124°42'0 0.0
2018-Jun-22 15:29N 49°31' W 124°42'0 0.0
2018-Jun-22 14:59N 49°31' W 124°42'0 0.0
2018-Jun-22 14:23N 49°31' W 124°42'0 0.0
2018-Jun-22 13:59N 49°31' W 124°42'0 0.0
2018-Jun-22 13:29N 49°31' W 124°42'0 0.0
2018-Jun-22 12:59N 49°31' W 124°42'0 0.0
2018-Jun-22 12:29N 49°31' W 124°42'0 0.0
2018-Jun-22 11:53N 49°31' W 124°42'0 0.0
2018-Jun-22 11:23N 49°31' W 124°42'0 0.0
2018-Jun-22 10:59N 49°31' W 124°42'523.4
2018-Jun-22 10:46N 49°32' W 124°49'516.8
2018-Jun-22 10:29N 49°31' W 124°42'523.3
2018-Jun-22 10:16N 49°32' W 124°49'0 0.0
2018-Jun-22 09:58N 49°32' W 124°49'553.9
2018-Jun-22 09:53N 49°31' W 124°42'511.9
2018-Jun-22 09:28N 49°32' W 124°49'525.7
2018-Jun-22 09:17N 49°31' W 124°42'515.8
2018-Jun-22 08:58N 49°32' W 124°49'0 0.0
2018-Jun-22 08:28N 49°32' W 124°49'0 0.0
2018-Jun-22 07:58N 49°32' W 124°49'0 0.0
2018-Jun-22 07:28N 49°32' W 124°49'0 0.0
2018-Jun-22 06:52N 49°32' W 124°49'0 0.0
2018-Jun-22 06:28N 49°32' W 124°49'0 0.0
2018-Jun-22 05:40N 49°32' W 124°49'0 0.0
2018-Jun-22 05:28N 49°32' W 124°49'5 1.7
2018-Jun-22 02:35N 49°31' W 124°42'5222.9
2018-Jun-22 02:34N 49°32' W 124°49'578.3
2018-Jun-22 02:30N 49°30' W 124°42'0 0.2
2018-Jun-22 01:57N 49°31' W 124°42'1 1.3
2018-Jun-22 01:18N 49°30' W 124°43'1 2.2
2018-Jun-22 00:59N 49°30' W 124°42'0 0.2
2018-Jun-22 00:26N 49°30' W 124°42'1 0.9
2018-Jun-21 23:45N 49°30' W 124°42'0 0.4
2018-Jun-21 23:19N 49°30' W 124°43'533.7
2018-Jun-21 23:10N 49°32' W 124°49'0 0.0
2018-Jun-21 22:58N 49°32' W 124°49'534.3
2018-Jun-21 22:49N 49°30' W 124°43'514.5
2018-Jun-21 22:28N 49°32' W 124°49'533.5
2018-Jun-21 22:19N 49°30' W 124°43'514.7
2018-Jun-21 21:58N 49°32' W 124°49'5179.7
2018-Jun-21 21:56N 49°31' W 124°42'510.3
2018-Jun-21 21:28N 49°32' W 124°49'571.0
2018-Jun-21 21:24N 49°30' W 124°43'511.9
2018-Jun-21 20:58N 49°32' W 124°49'584.4
2018-Jun-21 20:55N 49°31' W 124°42'1 2.2
2018-Jun-21 20:28N 49°30' W 124°43'554.4
2018-Jun-21 20:22N 49°32' W 124°49'0 0.0
2018-Jun-21 19:52N 49°32' W 124°49'5296.9
2018-Jun-21 19:51N 49°30' W 124°42'510.6
2018-Jun-21 19:22N 49°32' W 124°49'5162.6
2018-Jun-21 19:20N 49°30' W 124°43'513.8
2018-Jun-21 18:58N 49°32' W 124°49'522.2
2018-Jun-21 18:44N 49°30' W 124°43'0 0.0
2018-Jun-21 18:30N 49°30' W 124°43'559.3
2018-Jun-21 18:25N 49°32' W 124°49'0 0.0
2018-Jun-21 17:52N 49°32' W 124°49'0 0.0
2018-Jun-21 17:28N 49°32' W 124°49'5612.6
2018-Jun-21 17:28N 49°30' W 124°43'510.4
2018-Jun-21 16:58N 49°32' W 124°49'529.6
2018-Jun-21 16:48N 49°30' W 124°42'1 1.1
2018-Jun-21 16:19N 49°30' W 124°43'0 0.7
2018-Jun-21 15:37N 49°30' W 124°42'0 4.0
2018-Jun-21 15:30N 49°30' W 124°43'0 0.0
2018-Jun-21 14:45N 49°30' W 124°43'1 2.2
2018-Jun-21 14:17N 49°31' W 124°42'0 0.0
2018-Jun-21 12:38N 49°31' W 124°42'0 0.0
2018-Jun-21 12:20N 49°31' W 124°42'517.9
2018-Jun-21 12:04N 49°32' W 124°49'0 0.0
2018-Jun-21 11:52N 49°32' W 124°49'0 0.0
2018-Jun-21 11:28N 49°32' W 124°49'0 0.0
2018-Jun-21 10:46N 49°32' W 124°49'0 0.0
2018-Jun-21 10:10N 49°32' W 124°49'0 0.0
2018-Jun-21 09:52N 49°32' W 124°49'0 0.0
2018-Jun-21 09:16N 49°32' W 124°49'0 0.0
2018-Jun-21 08:46N 49°32' W 124°49'0 0.0
2018-Jun-21 08:28N 49°32' W 124°49'0 0.0
2018-Jun-21 07:46N 49°32' W 124°49'0 0.0
2018-Jun-21 07:16N 49°32' W 124°49'0 0.0
2018-Jun-21 06:52N 49°32' W 124°49'0 0.0
2018-Jun-21 06:04N 49°32' W 124°49'5 1.2
2018-Jun-21 01:44N 49°30' W 124°42'1 1.8
2018-Jun-21 01:28N 49°30' W 124°43'0 0.3
2018-Jun-21 00:43N 49°30' W 124°43'0 1.0
2018-Jun-21 00:30N 49°30' W 124°43'1 1.2
2018-Jun-20 23:51N 49°30' W 124°42'1 2.1
2018-Jun-20 23:28N 49°30' W 124°43'1 0.9
2018-Jun-20 22:50N 49°30' W 124°42'1 1.6
2018-Jun-20 22:28N 49°30' W 124°43'0 0.3
2018-Jun-20 21:52N 49°30' W 124°43'0 0.4
2018-Jun-20 21:25N 49°30' W 124°43'0 0.2
2018-Jun-20 19:55N 49°30' W 124°42'0 0.8
2018-Jun-20 19:27N 49°30' W 124°43'1 1.0
2018-Jun-20 18:53N 49°30' W 124°42'0 0.1
2018-Jun-20 18:12N 49°30' W 124°42'1 2.6
2018-Jun-20 18:00N 49°30' W 124°43'0 0.6
2018-Jun-20 17:25N 49°30' W 124°42'1 1.1
2018-Jun-20 16:55N 49°31' W 124°42'1 2.0
2018-Jun-20 16:27N 49°30' W 124°43'1 1.9
2018-Jun-20 15:54N 49°31' W 124°42'1 2.0
2018-Jun-20 15:23N 49°30' W 124°43'1 1.8
2018-Jun-20 14:58N 49°30' W 124°42'0 0.1
2018-Jun-20 12:37N 49°31' W 124°42'0 0.0
2018-Jun-20 12:25N 49°31' W 124°42'0 0.0
2018-Jun-20 11:31N 49°31' W 124°42'0 0.0
2018-Jun-20 11:13N 49°31' W 124°42'0 0.0
2018-Jun-20 10:49N 49°31' W 124°42'5 1.8
2018-Jun-20 08:04N 49°32' W 124°49'0 0.0
2018-Jun-20 07:52N 49°32' W 124°49'0 0.0
2018-Jun-20 06:28N 49°32' W 124°49'0 0.0
2018-Jun-20 05:34N 49°32' W 124°49'0 0.0
2018-Jun-20 05:28N 49°32' W 124°49'0 0.0
2018-Jun-20 04:58N 49°32' W 124°49'0 0.0
2018-Jun-20 04:10N 49°32' W 124°49'0 0.0
2018-Jun-20 03:52N 49°32' W 124°49'0 0.0
2018-Jun-20 03:16N 49°32' W 124°49'0 0.0
2018-Jun-20 02:46N 49°32' W 124°49'0 0.0
2018-Jun-20 02:28N 49°32' W 124°49'518.2
2018-Jun-20 02:11N 49°30' W 124°43'522.5
2018-Jun-20 01:58N 49°32' W 124°49'5391.9
2018-Jun-20 01:57N 49°30' W 124°43'0 0.5
2018-Jun-20 01:30N 49°30' W 124°43'5138.2
2018-Jun-20 01:28N 49°32' W 124°49'0 0.0
2018-Jun-20 00:58N 49°32' W 124°49'522.6
2018-Jun-20 00:45N 49°30' W 124°42'0 1.9
2018-Jun-20 00:30N 49°30' W 124°43'0 0.0
2018-Jun-19 23:41N 49°30' W 124°43'0 0.1
2018-Jun-19 23:29N 49°30' W 124°43'0 0.0
2018-Jun-19 22:43N 49°30' W 124°43'0 0.0
2018-Jun-19 22:28N 49°30' W 124°43'1 1.7
2018-Jun-19 21:52N 49°31' W 124°42'1 2.8
2018-Jun-19 21:30N 49°30' W 124°43'0 0.5
2018-Jun-19 20:46N 49°30' W 124°42'0 1.3
2018-Jun-19 20:30N 49°30' W 124°43'0 0.8
2018-Jun-19 19:57N 49°30' W 124°42'0 0.2
2018-Jun-19 19:26N 49°30' W 124°42'1 1.1
2018-Jun-19 18:54N 49°31' W 124°42'1 2.3
2018-Jun-19 18:30N 49°30' W 124°43'0 0.3
2018-Jun-19 17:50N 49°30' W 124°42'0 0.5
2018-Jun-19 17:30N 49°30' W 124°43'5193.5
2018-Jun-19 17:28N 49°32' W 124°49'0 0.0
2018-Jun-19 16:58N 49°32' W 124°49'0 0.0
2018-Jun-19 16:28N 49°32' W 124°49'520.7
2018-Jun-19 16:13N 49°30' W 124°43'520.1
2018-Jun-19 15:58N 49°32' W 124°49'515.9
2018-Jun-19 15:39N 49°30' W 124°42'1 3.8
2018-Jun-19 15:26N 49°30' W 124°43'523.2
2018-Jun-19 15:13N 49°32' W 124°49'0 0.0
2018-Jun-19 14:58N 49°32' W 124°49'518.2
2018-Jun-19 14:41N 49°30' W 124°43'1 0.4
2018-Jun-19 12:09N 49°31' W 124°42'0 0.0
2018-Jun-19 09:44N 49°31' W 124°42'0 0.0
2018-Jun-19 09:30N 49°31' W 124°42'0 0.0
2018-Jun-19 07:26N 49°31' W 124°42'0 0.0
2018-Jun-19 05:13N 49°31' W 124°42'1 3.7
2018-Jun-19 04:57N 49°30' W 124°43'1 0.2
2018-Jun-19 01:43N 49°30' W 124°42'1 2.1
2018-Jun-19 01:20N 49°30' W 124°43'1 1.0
2018-Jun-19 00:45N 49°30' W 124°42'0 0.4
2018-Jun-19 00:05N 49°30' W 124°42'0 0.2
2018-Jun-18 23:43N 49°30' W 124°42'0 1.6
2018-Jun-18 23:29N 49°30' W 124°43'1 1.7
2018-Jun-18 22:53N 49°31' W 124°42'1 1.1
2018-Jun-18 22:06N 49°30' W 124°43'1 2.3
2018-Jun-18 21:49N 49°30' W 124°42'1 2.6
2018-Jun-18 21:29N 49°30' W 124°43'0 0.2
2018-Jun-18 20:47N 49°30' W 124°42'0 0.5
2018-Jun-18 20:29N 49°30' W 124°43'1 2.0
2018-Jun-18 19:59N 49°31' W 124°42'1 1.7
2018-Jun-18 19:26N 49°30' W 124°43'0 0.1
2018-Jun-18 18:46N 49°30' W 124°42'554.4
2018-Jun-18 18:40N 49°32' W 124°49'0 0.0
2018-Jun-18 18:28N 49°32' W 124°49'5115.6
2018-Jun-18 18:25N 49°30' W 124°43'511.2
2018-Jun-18 17:58N 49°32' W 124°49'549.4
2018-Jun-18 17:52N 49°31' W 124°42'1 1.8
2018-Jun-18 17:22N 49°30' W 124°43'51148.6
2018-Jun-18 17:22N 49°32' W 124°49'0 0.0
2018-Jun-18 16:58N 49°32' W 124°49'523.8
2018-Jun-18 16:45N 49°30' W 124°42'517.5
2018-Jun-18 16:28N 49°32' W 124°49'5107.5
2018-Jun-18 16:25N 49°30' W 124°43'511.3
2018-Jun-18 15:58N 49°32' W 124°49'0 0.0
2018-Jun-18 15:16N 49°32' W 124°49'517.1
2018-Jun-18 14:59N 49°30' W 124°42'5 0.5
2018-Jun-18 04:28N 49°32' W 124°49'5 2.1
2018-Jun-18 02:06N 49°31' W 124°42'1 2.3
2018-Jun-18 01:45N 49°30' W 124°42'0 0.5
2018-Jun-18 01:26N 49°30' W 124°42'0 0.9
2018-Jun-18 01:00N 49°30' W 124°43'1 1.9
2018-Jun-18 00:29N 49°31' W 124°42'0 0.0
2018-Jun-17 23:46N 49°31' W 124°42'1 3.4
2018-Jun-17 23:29N 49°30' W 124°43'1 1.5
2018-Jun-17 22:49N 49°31' W 124°42'1 3.3
2018-Jun-17 22:30N 49°30' W 124°43'1 1.0
2018-Jun-17 21:52N 49°30' W 124°42'0 0.2
2018-Jun-17 21:30N 49°30' W 124°42'1 1.2
2018-Jun-17 20:56N 49°30' W 124°43'1 1.1
2018-Jun-17 20:18N 49°30' W 124°42'1 2.4
2018-Jun-17 20:00N 49°30' W 124°43'1 0.9
2018-Jun-17 19:26N 49°30' W 124°42'1 1.0
2018-Jun-17 18:53N 49°31' W 124°42'1 2.5
2018-Jun-17 18:28N 49°30' W 124°43'1 2.1
2018-Jun-17 18:00N 49°31' W 124°42'5161.6
2018-Jun-17 17:58N 49°32' W 124°49'511.1
2018-Jun-17 17:30N 49°30' W 124°43'5124.2
2018-Jun-17 17:28N 49°32' W 124°49'5 9.6
2018-Jun-17 16:57N 49°30' W 124°42'513.1
2018-Jun-17 16:34N 49°32' W 124°49'517.3
2018-Jun-17 16:16N 49°30' W 124°42'0 0.1
2018-Jun-17 08:07N 49°31' W 124°42'5 1.3
2018-Jun-17 04:22N 49°32' W 124°49'0 0.0
2018-Jun-17 03:58N 49°32' W 124°49'5 2.2
2018-Jun-17 01:37N 49°30' W 124°43'0 0.2
2018-Jun-17 01:29N 49°30' W 124°43'1 0.8
2018-Jun-17 00:46N 49°30' W 124°42'1 1.8
2018-Jun-17 00:27N 49°30' W 124°43'1 1.0
2018-Jun-16 23:48N 49°30' W 124°42'1 2.3
2018-Jun-16 23:30N 49°30' W 124°43'1 1.5
2018-Jun-16 22:52N 49°31' W 124°42'1 1.8
2018-Jun-16 22:19N 49°30' W 124°43'1 1.1
2018-Jun-16 21:47N 49°30' W 124°42'1 2.0
2018-Jun-16 21:29N 49°30' W 124°43'1 1.6
2018-Jun-16 20:56N 49°31' W 124°42'1 2.0
2018-Jun-16 20:30N 49°30' W 124°43'1 1.7
2018-Jun-16 20:00N 49°30' W 124°42'1 1.7
2018-Jun-16 19:30N 49°30' W 124°43'1 0.9
2018-Jun-16 18:47N 49°30' W 124°42'1 2.2
2018-Jun-16 18:29N 49°30' W 124°43'1 2.1
2018-Jun-16 17:59N 49°31' W 124°42'1 2.1
2018-Jun-16 17:30N 49°30' W 124°43'1 1.9
2018-Jun-16 16:58N 49°31' W 124°42'1 2.2
2018-Jun-16 16:30N 49°30' W 124°43'1 1.6
2018-Jun-16 15:59N 49°30' W 124°42'0 0.4
2018-Jun-16 15:29N 49°31' W 124°42'0 0.2
2018-Jun-16 15:00N 49°31' W 124°42'0 0.1
2018-Jun-16 14:02N 49°31' W 124°42'0 0.0
2018-Jun-16 13:56N 49°31' W 124°42'0 0.0
2018-Jun-16 13:26N 49°31' W 124°42'0 0.0
2018-Jun-16 12:20N 49°31' W 124°42'5 0.8
2018-Jun-16 06:04N 49°32' W 124°49'536.8
2018-Jun-16 05:56N 49°31' W 124°42'572.5
2018-Jun-16 05:52N 49°32' W 124°49'513.3
2018-Jun-16 05:29N 49°30' W 124°43'1 1.9
2018-Jun-16 04:56N 49°31' W 124°42'0 0.6
2018-Jun-16 04:31N 49°30' W 124°42'0 0.4
2018-Jun-16 03:53N 49°31' W 124°42'0 0.0
2018-Jun-16 03:30N 49°31' W 124°42'1 1.8
2018-Jun-16 02:58N 49°30' W 124°43'0 0.1
2018-Jun-16 02:28N 49°30' W 124°43'1 1.0
2018-Jun-16 01:51N 49°30' W 124°42'0 1.2
2018-Jun-16 01:29N 49°30' W 124°43'0 0.4
2018-Jun-16 00:58N 49°30' W 124°43'1 1.5
2018-Jun-16 00:26N 49°30' W 124°42'0 0.1
2018-Jun-16 00:00N 49°30' W 124°42'1 1.5
2018-Jun-15 23:30N 49°30' W 124°43'1 1.7
2018-Jun-15 23:00N 49°30' W 124°42'1 1.7
2018-Jun-15 22:30N 49°30' W 124°43'0 0.5
2018-Jun-15 21:59N 49°30' W 124°42'1 1.5
2018-Jun-15 21:27N 49°31' W 124°42'1 2.1
2018-Jun-15 21:00N 49°30' W 124°43'0 0.2
2018-Jun-15 20:30N 49°30' W 124°43'0 0.2
2018-Jun-15 19:51N 49°30' W 124°42'0 0.4
2018-Jun-15 19:30N 49°30' W 124°43'1 1.4
2018-Jun-15 18:56N 49°30' W 124°42'1 1.1
2018-Jun-15 18:16N 49°30' W 124°43'0 0.3
2018-Jun-15 17:43N 49°30' W 124°42'0 0.2
2018-Jun-15 17:14N 49°30' W 124°43'0 0.1
2018-Jun-15 16:08N 49°30' W 124°43'1 2.2
2018-Jun-15 15:42N 49°31' W 124°42'1 3.8
2018-Jun-15 15:26N 49°30' W 124°43'530.7
2018-Jun-15 15:16N 49°32' W 124°49'518.6
2018-Jun-15 15:00N 49°31' W 124°42'536.1
2018-Jun-15 14:52N 49°32' W 124°49'0 0.0
2018-Jun-15 14:28N 49°32' W 124°49'560.5
2018-Jun-15 14:23N 49°31' W 124°42'511.7
2018-Jun-15 13:58N 49°32' W 124°49'0 0.0
2018-Jun-15 13:28N 49°32' W 124°49'0 0.0
2018-Jun-15 12:58N 49°32' W 124°49'0 0.0
2018-Jun-15 12:28N 49°32' W 124°49'0 0.0
2018-Jun-15 11:58N 49°32' W 124°49'0 0.0
2018-Jun-15 11:28N 49°32' W 124°49'0 0.0
2018-Jun-15 10:40N 49°32' W 124°49'0 0.0
2018-Jun-15 10:28N 49°32' W 124°49'0 0.0
2018-Jun-15 09:58N 49°32' W 124°49'0 0.0
2018-Jun-15 09:16N 49°32' W 124°49'0 0.0
2018-Jun-15 05:28N 49°32' W 124°49'0 0.0
2018-Jun-15 04:52N 49°32' W 124°49'0 0.0
2018-Jun-15 04:22N 49°32' W 124°49'0 0.0
2018-Jun-15 03:58N 49°32' W 124°49'0 0.0
2018-Jun-15 02:28N 49°32' W 124°49'5 7.4
2018-Jun-15 01:49N 49°31' W 124°42'1 3.0
2018-Jun-15 01:29N 49°30' W 124°43'516.5
2018-Jun-15 01:10N 49°32' W 124°49'0 0.0
2018-Jun-15 00:58N 49°32' W 124°49'0 0.0
2018-Jun-15 00:28N 49°32' W 124°49'514.4
2018-Jun-15 00:08N 49°30' W 124°42'0 1.5
2018-Jun-15 00:01N 49°31' W 124°42'5118.2
2018-Jun-14 23:58N 49°32' W 124°49'0 0.0
2018-Jun-14 23:28N 49°32' W 124°49'529.7
2018-Jun-14 23:18N 49°30' W 124°43'1 2.3
2018-Jun-14 22:58N 49°31' W 124°42'51601.1
2018-Jun-14 22:58N 49°32' W 124°49'0 0.0
2018-Jun-14 22:28N 49°32' W 124°49'568.6
2018-Jun-14 22:24N 49°30' W 124°43'1 1.6
2018-Jun-14 21:49N 49°31' W 124°42'1 2.1
2018-Jun-14 21:23N 49°30' W 124°43'0 0.1
2018-Jun-14 20:47N 49°30' W 124°43'515.9
2018-Jun-14 20:28N 49°32' W 124°49'559.5
2018-Jun-14 20:23N 49°30' W 124°43'512.3
2018-Jun-14 19:58N 49°32' W 124°49'5 6.5
2018-Jun-14 19:12N 49°30' W 124°43'5 6.8
2018-Jun-14 18:28N 49°32' W 124°49'513.5
2018-Jun-14 18:05N 49°30' W 124°42'0 0.9
2018-Jun-14 17:53N 49°30' W 124°43'0 0.8
2018-Jun-14 17:30N 49°30' W 124°43'0 0.0
2018-Jun-14 16:11N 49°30' W 124°43'1 5.9
2018-Jun-14 16:01N 49°31' W 124°42'1 2.0
2018-Jun-14 15:30N 49°30' W 124°43'0 0.0
2018-Jun-14 14:55N 49°30' W 124°43'1 2.3
2018-Jun-14 14:29N 49°31' W 124°42'515.6
2018-Jun-14 14:10N 49°32' W 124°49'0 0.0
2018-Jun-14 13:58N 49°32' W 124°49'530.1
2018-Jun-14 13:48N 49°31' W 124°42'514.5
2018-Jun-14 13:28N 49°32' W 124°49'0 0.0
2018-Jun-14 12:58N 49°32' W 124°49'0 0.0
2018-Jun-14 12:28N 49°32' W 124°49'534.7
2018-Jun-14 12:20N 49°31' W 124°42'0 0.0
2018-Jun-14 12:00N 49°31' W 124°42'5155.9
2018-Jun-14 11:58N 49°32' W 124°49'510.0
2018-Jun-14 11:29N 49°31' W 124°42'544.9
2018-Jun-14 11:22N 49°32' W 124°49'512.9
2018-Jun-14 10:59N 49°31' W 124°42'5228.7
2018-Jun-14 10:58N 49°32' W 124°49'510.5
2018-Jun-14 10:30N 49°31' W 124°42'5153.2
2018-Jun-14 10:28N 49°32' W 124°49'510.0
2018-Jun-14 09:59N 49°31' W 124°42'523.4
2018-Jun-14 09:46N 49°32' W 124°49'518.2
2018-Jun-14 09:30N 49°31' W 124°42'537.1
2018-Jun-14 09:22N 49°32' W 124°49'513.5
2018-Jun-14 09:00N 49°31' W 124°42'5130.5
2018-Jun-14 08:58N 49°32' W 124°49'510.1
2018-Jun-14 08:29N 49°31' W 124°42'0 0.0
2018-Jun-14 08:00N 49°31' W 124°42'511.2
2018-Jun-14 07:34N 49°32' W 124°49'571.9
2018-Jun-14 07:30N 49°31' W 124°42'5154.5
2018-Jun-14 07:28N 49°32' W 124°49'510.2
2018-Jun-14 06:59N 49°31' W 124°42'540.5
2018-Jun-14 06:52N 49°32' W 124°49'513.3
2018-Jun-14 06:30N 49°31' W 124°42'514.8
2018-Jun-14 06:10N 49°32' W 124°49'0 0.0
2018-Jun-14 05:58N 49°32' W 124°49'5733.9
2018-Jun-14 05:58N 49°31' W 124°42'5 9.9
2018-Jun-14 05:28N 49°32' W 124°49'571.9
2018-Jun-14 05:24N 49°31' W 124°42'0 0.0
2018-Jun-14 05:00N 49°31' W 124°42'5157.3
2018-Jun-14 04:58N 49°32' W 124°49'0 0.0
2018-Jun-14 04:28N 49°32' W 124°49'577.9
2018-Jun-14 04:24N 49°31' W 124°42'0 0.0
2018-Jun-14 03:58N 49°31' W 124°42'552.7
2018-Jun-14 03:52N 49°32' W 124°49'0 0.0
2018-Jun-14 03:28N 49°32' W 124°49'5652.3
2018-Jun-14 03:28N 49°31' W 124°42'0 0.0
2018-Jun-14 02:58N 49°31' W 124°42'51100.8
2018-Jun-14 02:58N 49°32' W 124°49'0 0.0
2018-Jun-14 02:28N 49°32' W 124°49'531.2
2018-Jun-14 02:19N 49°31' W 124°42'0 0.0
2018-Jun-14 01:56N 49°31' W 124°42'569.3
2018-Jun-14 01:52N 49°32' W 124°49'514.1
2018-Jun-14 01:30N 49°30' W 124°43'5137.2
2018-Jun-14 01:28N 49°32' W 124°49'0 0.0
2018-Jun-14 00:58N 49°32' W 124°49'5120.6
2018-Jun-14 00:56N 49°31' W 124°42'1 2.3
2018-Jun-14 00:29N 49°30' W 124°43'5574.3
2018-Jun-14 00:28N 49°32' W 124°49'510.2
2018-Jun-13 23:59N 49°31' W 124°42'540.7
2018-Jun-13 23:52N 49°32' W 124°49'0 0.0
2018-Jun-13 23:28N 49°32' W 124°49'599.3
2018-Jun-13 23:25N 49°30' W 124°43'1 2.4
2018-Jun-13 23:00N 49°31' W 124°42'1 2.1
2018-Jun-13 22:30N 49°30' W 124°43'515.1
2018-Jun-13 22:10N 49°32' W 124°49'519.9
2018-Jun-13 21:55N 49°31' W 124°42'1 2.3
2018-Jun-13 21:29N 49°30' W 124°43'1 2.0
2018-Jun-13 21:00N 49°31' W 124°42'1 1.9
2018-Jun-13 20:30N 49°30' W 124°43'1 1.2
2018-Jun-13 20:00N 49°30' W 124°43'1 1.2
2018-Jun-13 19:30N 49°30' W 124°43'1 1.5
2018-Jun-13 18:58N 49°30' W 124°42'1 1.4
2018-Jun-13 18:25N 49°30' W 124°43'1 2.5
2018-Jun-13 18:00N 49°31' W 124°42'1 2.0
2018-Jun-13 17:30N 49°30' W 124°43'1 1.7
2018-Jun-13 16:55N 49°31' W 124°42'1 2.4
2018-Jun-13 16:30N 49°30' W 124°43'1 2.1
2018-Jun-13 16:00N 49°31' W 124°42'511.2
2018-Jun-13 15:34N 49°32' W 124°49'518.0
2018-Jun-13 15:17N 49°30' W 124°42'544.3
2018-Jun-13 15:10N 49°32' W 124°49'524.7
2018-Jun-13 14:58N 49°31' W 124°42'53525.3
2018-Jun-13 14:58N 49°32' W 124°49'510.0
2018-Jun-13 14:29N 49°31' W 124°42'5382.9
2018-Jun-13 14:28N 49°32' W 124°49'0 0.0
2018-Jun-13 13:46N 49°32' W 124°49'555.9
2018-Jun-13 13:41N 49°31' W 124°42'0 0.0
2018-Jun-13 13:29N 49°31' W 124°42'543.2
2018-Jun-13 13:22N 49°32' W 124°49'512.6
2018-Jun-13 12:59N 49°31' W 124°42'5382.9
2018-Jun-13 12:58N 49°32' W 124°49'510.0
2018-Jun-13 12:29N 49°31' W 124°42'5391.4
2018-Jun-13 12:28N 49°32' W 124°49'5 7.1
2018-Jun-13 11:47N 49°31' W 124°42'5374.7
2018-Jun-13 11:46N 49°32' W 124°49'0 0.0
2018-Jun-13 11:28N 49°32' W 124°49'0 0.0
2018-Jun-13 10:58N 49°32' W 124°49'512.6
2018-Jun-13 10:35N 49°31' W 124°42'0 0.0
2018-Jun-13 10:29N 49°31' W 124°42'5400.3
2018-Jun-13 10:28N 49°32' W 124°49'510.0
2018-Jun-13 09:59N 49°31' W 124°42'523.0
2018-Jun-13 09:46N 49°32' W 124°49'517.0
2018-Jun-13 09:29N 49°31' W 124°42'5382.9
2018-Jun-13 09:28N 49°32' W 124°49'0 0.0
2018-Jun-13 08:58N 49°32' W 124°49'0 0.0
2018-Jun-13 08:28N 49°32' W 124°49'0 0.0
2018-Jun-13 07:58N 49°32' W 124°49'0 0.0
2018-Jun-13 07:19N 49°32' W 124°49'5129.5
2018-Jun-13 07:17N 49°31' W 124°42'515.6
2018-Jun-13 06:58N 49°32' W 124°49'526.1
2018-Jun-13 06:47N 49°31' W 124°42'0 0.0
2018-Jun-13 06:23N 49°31' W 124°42'5391.4
2018-Jun-13 06:22N 49°32' W 124°49'0 0.0
2018-Jun-13 05:58N 49°32' W 124°49'0 0.0
2018-Jun-13 05:28N 49°32' W 124°49'0 0.0
2018-Jun-13 04:46N 49°32' W 124°49'0 0.0
2018-Jun-13 04:28N 49°32' W 124°49'0 0.0
2018-Jun-13 03:58N 49°32' W 124°49'0 0.0
2018-Jun-13 03:28N 49°32' W 124°49'0 0.0
2018-Jun-13 02:58N 49°32' W 124°49'0 0.0
2018-Jun-13 02:28N 49°32' W 124°49'0 0.0
2018-Jun-13 01:58N 49°32' W 124°49'582.3
2018-Jun-13 01:54N 49°31' W 124°42'511.1
2018-Jun-13 01:28N 49°32' W 124°49'526.9
2018-Jun-13 01:17N 49°30' W 124°43'516.5
2018-Jun-13 00:58N 49°32' W 124°49'0 0.0
2018-Jun-13 00:28N 49°32' W 124°49'515.9
2018-Jun-13 00:09N 49°30' W 124°43'1 5.0
2018-Jun-12 23:58N 49°31' W 124°42'5587.1
2018-Jun-12 23:58N 49°32' W 124°49'0 0.0
2018-Jun-12 23:22N 49°32' W 124°49'540.6
2018-Jun-12 23:14N 49°30' W 124°43'1 4.2
2018-Jun-12 23:00N 49°31' W 124°42'5139.8
2018-Jun-12 22:58N 49°32' W 124°49'5 6.0
2018-Jun-12 22:07N 49°30' W 124°43'0 0.2
2018-Jun-12 21:37N 49°30' W 124°43'0 0.9
2018-Jun-12 21:10N 49°30' W 124°43'1 2.6
2018-Jun-12 20:56N 49°31' W 124°42'1 2.3
2018-Jun-12 20:29N 49°30' W 124°43'  

Dump ship's entire track history